sensor_id;sensor_type;location;lat;lon;timestamp;temperature;humidity
21039;DHT22;10678;51.002;4.786;2023-03-03T00:00:52;2.60;99.90
21039;DHT22;10678;51.002;4.786;2023-03-03T00:03:23;2.50;99.90
21039;DHT22;10678;51.002;4.786;2023-03-03T00:05:49;2.50;99.90
21039;DHT22;10678;51.002;4.786;2023-03-03T00:08:15;2.40;99.90
21039;DHT22;10678;51.002;4.786;2023-03-03T00:10:41;2.30;99.90
21039;DHT22;10678;51.002;4.786;2023-03-03T00:13:19;2.30;99.90
21039;DHT22;10678;51.002;4.786;2023-03-03T00:15:45;2.30;99.90
21039;DHT22;10678;51.002;4.786;2023-03-03T00:20:51;2.20;99.90
21039;DHT22;10678;51.002;4.786;2023-03-03T00:23:36;2.10;99.90
21039;DHT22;10678;51.002;4.786;2023-03-03T00:26:29;2.00;99.90
21039;DHT22;10678;51.002;4.786;2023-03-03T00:28:58;2.00;99.90
21039;DHT22;10678;51.002;4.786;2023-03-03T00:31:35;1.90;99.90
21039;DHT22;10678;51.002;4.786;2023-03-03T00:34:26;1.80;99.90
21039;DHT22;10678;51.002;4.786;2023-03-03T00:36:57;1.80;99.90
21039;DHT22;10678;51.002;4.786;2023-03-03T00:39:37;1.60;99.90
21039;DHT22;10678;51.002;4.786;2023-03-03T00:42:15;1.60;99.90
21039;DHT22;10678;51.002;4.786;2023-03-03T00:44:55;1.60;99.90
21039;DHT22;10678;51.002;4.786;2023-03-03T00:49:53;1.50;99.90
21039;DHT22;10678;51.002;4.786;2023-03-03T00:52:20;1.40;99.90
21039;DHT22;10678;51.002;4.786;2023-03-03T00:54:46;1.40;99.90
21039;DHT22;10678;51.002;4.786;2023-03-03T00:57:11;1.30;99.90
21039;DHT22;10678;51.002;4.786;2023-03-03T00:59:38;1.30;99.90
21039;DHT22;10678;51.002;4.786;2023-03-03T01:02:04;1.30;99.90
21039;DHT22;10678;51.002;4.786;2023-03-03T01:04:29;1.30;99.90
21039;DHT22;10678;51.002;4.786;2023-03-03T01:06:55;1.20;99.90
21039;DHT22;10678;51.002;4.786;2023-03-03T01:09:21;1.20;99.90
21039;DHT22;10678;51.002;4.786;2023-03-03T01:11:46;1.20;99.90
21039;DHT22;10678;51.002;4.786;2023-03-03T01:14:12;1.20;99.90
21039;DHT22;10678;51.002;4.786;2023-03-03T01:16:38;1.20;99.90
21039;DHT22;10678;51.002;4.786;2023-03-03T01:19:05;1.30;99.90
21039;DHT22;10678;51.002;4.786;2023-03-03T01:21:31;1.30;99.90
21039;DHT22;10678;51.002;4.786;2023-03-03T01:23:56;1.30;99.90
21039;DHT22;10678;51.002;4.786;2023-03-03T01:26:22;1.30;99.90
21039;DHT22;10678;51.002;4.786;2023-03-03T01:28:48;1.20;99.90
21039;DHT22;10678;51.002;4.786;2023-03-03T01:31:13;1.30;99.90
21039;DHT22;10678;51.002;4.786;2023-03-03T01:33:39;1.30;99.90
21039;DHT22;10678;51.002;4.786;2023-03-03T01:36:05;1.40;99.90
21039;DHT22;10678;51.002;4.786;2023-03-03T01:38:30;1.30;99.90
21039;DHT22;10678;51.002;4.786;2023-03-03T01:40:58;1.40;99.90
21039;DHT22;10678;51.002;4.786;2023-03-03T01:43:28;1.40;99.90
21039;DHT22;10678;51.002;4.786;2023-03-03T01:48:35;1.40;99.90
21039;DHT22;10678;51.002;4.786;2023-03-03T01:51:27;1.40;99.90
21039;DHT22;10678;51.002;4.786;2023-03-03T01:54:03;1.50;99.90
21039;DHT22;10678;51.002;4.786;2023-03-03T01:56:29;1.50;99.90
21039;DHT22;10678;51.002;4.786;2023-03-03T02:01:28;1.50;99.90
21039;DHT22;10678;51.002;4.786;2023-03-03T02:03:55;1.50;99.90
21039;DHT22;10678;51.002;4.786;2023-03-03T02:06:27;1.40;99.90
21039;DHT22;10678;51.002;4.786;2023-03-03T02:12:07;1.40;99.90
21039;DHT22;10678;51.002;4.786;2023-03-03T02:14:35;1.40;99.90
21039;DHT22;10678;51.002;4.786;2023-03-03T02:17:01;1.50;99.90
21039;DHT22;10678;51.002;4.786;2023-03-03T02:22:21;1.50;99.90
21039;DHT22;10678;51.002;4.786;2023-03-03T02:24:59;1.50;99.90
21039;DHT22;10678;51.002;4.786;2023-03-03T02:27:28;1.50;99.90
21039;DHT22;10678;51.002;4.786;2023-03-03T02:29:55;1.50;99.90
21039;DHT22;10678;51.002;4.786;2023-03-03T02:32:21;1.50;99.90
21039;DHT22;10678;51.002;4.786;2023-03-03T02:34:49;1.40;99.90
21039;DHT22;10678;51.002;4.786;2023-03-03T02:37:16;1.30;99.90
21039;DHT22;10678;51.002;4.786;2023-03-03T02:39:43;1.30;99.90
21039;DHT22;10678;51.002;4.786;2023-03-03T02:42:11;1.20;99.90
21039;DHT22;10678;51.002;4.786;2023-03-03T02:44:37;1.10;99.90
21039;DHT22;10678;51.002;4.786;2023-03-03T02:47:03;1.10;99.90
21039;DHT22;10678;51.002;4.786;2023-03-03T02:49:31;1.10;99.90
21039;DHT22;10678;51.002;4.786;2023-03-03T02:51:58;1.10;99.90
21039;DHT22;10678;51.002;4.786;2023-03-03T02:54:25;1.10;99.90
21039;DHT22;10678;51.002;4.786;2023-03-03T02:56:51;1.10;99.90
21039;DHT22;10678;51.002;4.786;2023-03-03T02:59:17;1.20;99.90
21039;DHT22;10678;51.002;4.786;2023-03-03T03:01:43;1.30;99.90
21039;DHT22;10678;51.002;4.786;2023-03-03T03:04:21;1.60;99.90
21039;DHT22;10678;51.002;4.786;2023-03-03T03:06:46;1.80;99.90
21039;DHT22;10678;51.002;4.786;2023-03-03T03:09:14;1.90;99.90
21039;DHT22;10678;51.002;4.786;2023-03-03T03:11:40;2.20;99.90
21039;DHT22;10678;51.002;4.786;2023-03-03T03:14:07;2.20;99.90
21039;DHT22;10678;51.002;4.786;2023-03-03T03:16:33;2.30;99.90
21039;DHT22;10678;51.002;4.786;2023-03-03T03:19:00;2.20;99.90
21039;DHT22;10678;51.002;4.786;2023-03-03T03:21:26;2.30;99.90
21039;DHT22;10678;51.002;4.786;2023-03-03T03:23:52;2.30;99.90
21039;DHT22;10678;51.002;4.786;2023-03-03T03:26:18;2.40;99.90
21039;DHT22;10678;51.002;4.786;2023-03-03T03:28:46;2.30;99.90
21039;DHT22;10678;51.002;4.786;2023-03-03T03:31:11;2.40;99.90
21039;DHT22;10678;51.002;4.786;2023-03-03T03:33:37;2.50;99.90
21039;DHT22;10678;51.002;4.786;2023-03-03T03:36:03;2.60;99.90
21039;DHT22;10678;51.002;4.786;2023-03-03T03:38:31;2.70;99.90
21039;DHT22;10678;51.002;4.786;2023-03-03T03:40:57;2.60;99.90
21039;DHT22;10678;51.002;4.786;2023-03-03T03:43:23;2.60;99.90
21039;DHT22;10678;51.002;4.786;2023-03-03T03:45:49;2.60;99.90
21039;DHT22;10678;51.002;4.786;2023-03-03T03:48:15;2.60;99.90
21039;DHT22;10678;51.002;4.786;2023-03-03T03:50:41;2.80;99.90
21039;DHT22;10678;51.002;4.786;2023-03-03T03:53:07;2.80;99.90
21039;DHT22;10678;51.002;4.786;2023-03-03T03:55:33;2.70;99.90
21039;DHT22;10678;51.002;4.786;2023-03-03T03:57:59;2.80;99.90
21039;DHT22;10678;51.002;4.786;2023-03-03T04:00:24;2.70;99.90
21039;DHT22;10678;51.002;4.786;2023-03-03T04:02:50;2.80;99.90
21039;DHT22;10678;51.002;4.786;2023-03-03T04:05:16;2.70;99.90
21039;DHT22;10678;51.002;4.786;2023-03-03T04:07:42;2.60;99.90
21039;DHT22;10678;51.002;4.786;2023-03-03T04:10:08;2.50;99.90
21039;DHT22;10678;51.002;4.786;2023-03-03T04:12:34;2.50;99.90
21039;DHT22;10678;51.002;4.786;2023-03-03T04:15:10;2.50;99.90
21039;DHT22;10678;51.002;4.786;2023-03-03T04:17:37;2.80;99.90
21039;DHT22;10678;51.002;4.786;2023-03-03T04:20:03;2.80;99.90
21039;DHT22;10678;51.002;4.786;2023-03-03T04:22:29;2.70;99.90
21039;DHT22;10678;51.002;4.786;2023-03-03T04:25:00;2.70;99.90
21039;DHT22;10678;51.002;4.786;2023-03-03T04:27:32;2.60;99.90
21039;DHT22;10678;51.002;4.786;2023-03-03T04:29:58;2.70;99.90
21039;DHT22;10678;51.002;4.786;2023-03-03T04:32:24;2.80;99.90
21039;DHT22;10678;51.002;4.786;2023-03-03T04:34:49;2.90;99.90
21039;DHT22;10678;51.002;4.786;2023-03-03T04:37:15;2.90;99.90
21039;DHT22;10678;51.002;4.786;2023-03-03T04:39:41;2.80;99.90
21039;DHT22;10678;51.002;4.786;2023-03-03T04:42:06;2.70;99.90
21039;DHT22;10678;51.002;4.786;2023-03-03T04:44:32;2.80;99.90
21039;DHT22;10678;51.002;4.786;2023-03-03T04:46:58;2.80;99.90
21039;DHT22;10678;51.002;4.786;2023-03-03T04:49:23;3.00;99.90
21039;DHT22;10678;51.002;4.786;2023-03-03T04:51:49;2.90;99.90
21039;DHT22;10678;51.002;4.786;2023-03-03T04:54:15;2.80;99.90
21039;DHT22;10678;51.002;4.786;2023-03-03T04:56:40;2.80;99.90
21039;DHT22;10678;51.002;4.786;2023-03-03T04:59:06;2.70;99.90
21039;DHT22;10678;51.002;4.786;2023-03-03T05:01:31;2.60;99.90
21039;DHT22;10678;51.002;4.786;2023-03-03T05:03:57;2.60;99.90
21039;DHT22;10678;51.002;4.786;2023-03-03T05:06:22;2.60;99.90
21039;DHT22;10678;51.002;4.786;2023-03-03T05:08:49;2.70;99.90
21039;DHT22;10678;51.002;4.786;2023-03-03T05:11:14;2.60;99.90
21039;DHT22;10678;51.002;4.786;2023-03-03T05:13:40;2.80;99.90
21039;DHT22;10678;51.002;4.786;2023-03-03T05:16:06;2.70;99.90
21039;DHT22;10678;51.002;4.786;2023-03-03T05:18:31;2.80;99.90
21039;DHT22;10678;51.002;4.786;2023-03-03T05:20:57;2.90;99.90
21039;DHT22;10678;51.002;4.786;2023-03-03T05:23:23;3.00;99.90
21039;DHT22;10678;51.002;4.786;2023-03-03T05:25:49;3.00;99.90
21039;DHT22;10678;51.002;4.786;2023-03-03T05:28:15;2.90;99.90
21039;DHT22;10678;51.002;4.786;2023-03-03T05:30:41;2.80;99.90
21039;DHT22;10678;51.002;4.786;2023-03-03T05:33:07;2.60;99.90
21039;DHT22;10678;51.002;4.786;2023-03-03T05:35:33;2.70;99.90
21039;DHT22;10678;51.002;4.786;2023-03-03T05:37:59;2.80;99.90
21039;DHT22;10678;51.002;4.786;2023-03-03T05:40:25;2.70;99.90
21039;DHT22;10678;51.002;4.786;2023-03-03T05:42:51;2.80;99.90
21039;DHT22;10678;51.002;4.786;2023-03-03T05:45:17;2.70;99.90
21039;DHT22;10678;51.002;4.786;2023-03-03T05:47:47;2.70;99.90
21039;DHT22;10678;51.002;4.786;2023-03-03T05:50:13;2.80;99.90
21039;DHT22;10678;51.002;4.786;2023-03-03T05:52:38;2.60;99.90
21039;DHT22;10678;51.002;4.786;2023-03-03T05:55:04;2.60;99.90
21039;DHT22;10678;51.002;4.786;2023-03-03T05:57:30;2.70;99.90
21039;DHT22;10678;51.002;4.786;2023-03-03T05:59:56;2.70;99.90
21039;DHT22;10678;51.002;4.786;2023-03-03T06:02:22;2.50;99.90
21039;DHT22;10678;51.002;4.786;2023-03-03T06:04:47;2.50;99.90
21039;DHT22;10678;51.002;4.786;2023-03-03T06:07:13;2.60;99.90
21039;DHT22;10678;51.002;4.786;2023-03-03T06:09:39;2.60;99.90
21039;DHT22;10678;51.002;4.786;2023-03-03T06:12:04;2.50;99.90
21039;DHT22;10678;51.002;4.786;2023-03-03T06:14:30;2.50;99.90
21039;DHT22;10678;51.002;4.786;2023-03-03T06:16:56;2.30;99.90
21039;DHT22;10678;51.002;4.786;2023-03-03T06:19:22;2.40;99.90
21039;DHT22;10678;51.002;4.786;2023-03-03T06:21:49;2.40;99.90
21039;DHT22;10678;51.002;4.786;2023-03-03T06:24:14;2.30;99.90
21039;DHT22;10678;51.002;4.786;2023-03-03T06:26:40;2.40;99.90
21039;DHT22;10678;51.002;4.786;2023-03-03T06:29:06;2.30;99.90
21039;DHT22;10678;51.002;4.786;2023-03-03T06:31:32;2.30;99.90
21039;DHT22;10678;51.002;4.786;2023-03-03T06:33:57;2.20;99.90
21039;DHT22;10678;51.002;4.786;2023-03-03T06:36:23;2.10;99.90
21039;DHT22;10678;51.002;4.786;2023-03-03T06:38:50;2.20;99.90
21039;DHT22;10678;51.002;4.786;2023-03-03T06:41:16;2.20;99.90
21039;DHT22;10678;51.002;4.786;2023-03-03T06:43:42;2.20;99.90
21039;DHT22;10678;51.002;4.786;2023-03-03T06:46:07;2.20;99.90
21039;DHT22;10678;51.002;4.786;2023-03-03T06:48:33;2.20;99.90
21039;DHT22;10678;51.002;4.786;2023-03-03T06:51:01;2.20;99.90
21039;DHT22;10678;51.002;4.786;2023-03-03T06:53:27;2.20;99.90
21039;DHT22;10678;51.002;4.786;2023-03-03T06:55:57;2.40;99.90
21039;DHT22;10678;51.002;4.786;2023-03-03T06:58:23;2.50;99.90
21039;DHT22;10678;51.002;4.786;2023-03-03T07:00:59;2.30;99.90
21039;DHT22;10678;51.002;4.786;2023-03-03T07:03:30;2.50;99.90
21039;DHT22;10678;51.002;4.786;2023-03-03T07:05:57;2.50;99.90
21039;DHT22;10678;51.002;4.786;2023-03-03T07:08:23;2.70;99.90
21039;DHT22;10678;51.002;4.786;2023-03-03T07:10:51;2.70;99.90
21039;DHT22;10678;51.002;4.786;2023-03-03T07:13:26;2.80;99.90
21039;DHT22;10678;51.002;4.786;2023-03-03T07:15:54;2.70;99.90
21039;DHT22;10678;51.002;4.786;2023-03-03T07:18:35;2.60;99.90
21039;DHT22;10678;51.002;4.786;2023-03-03T07:21:17;2.80;99.90
21039;DHT22;10678;51.002;4.786;2023-03-03T07:23:45;2.90;99.90
21039;DHT22;10678;51.002;4.786;2023-03-03T07:26:13;2.90;99.90
21039;DHT22;10678;51.002;4.786;2023-03-03T07:28:44;2.70;99.90
21039;DHT22;10678;51.002;4.786;2023-03-03T07:31:30;2.80;99.90
21039;DHT22;10678;51.002;4.786;2023-03-03T07:33:59;2.80;99.90
21039;DHT22;10678;51.002;4.786;2023-03-03T07:36:30;2.70;99.90
21039;DHT22;10678;51.002;4.786;2023-03-03T07:39:01;2.80;99.90
21039;DHT22;10678;51.002;4.786;2023-03-03T07:41:30;2.80;99.90
21039;DHT22;10678;51.002;4.786;2023-03-03T07:44:18;2.80;99.90
21039;DHT22;10678;51.002;4.786;2023-03-03T07:46:49;2.70;99.90
21039;DHT22;10678;51.002;4.786;2023-03-03T07:51:57;2.60;99.90
21039;DHT22;10678;51.002;4.786;2023-03-03T07:54:42;2.50;99.90
21039;DHT22;10678;51.002;4.786;2023-03-03T07:59:54;2.70;99.90
21039;DHT22;10678;51.002;4.786;2023-03-03T08:04:48;2.90;99.90
21039;DHT22;10678;51.002;4.786;2023-03-03T08:07:19;2.80;99.90
21039;DHT22;10678;51.002;4.786;2023-03-03T08:09:51;2.70;99.90
21039;DHT22;10678;51.002;4.786;2023-03-03T08:12:37;2.90;99.90
21039;DHT22;10678;51.002;4.786;2023-03-03T08:15:17;3.00;99.90
21039;DHT22;10678;51.002;4.786;2023-03-03T08:17:43;3.00;99.90
21039;DHT22;10678;51.002;4.786;2023-03-03T08:22:59;3.10;99.90
21039;DHT22;10678;51.002;4.786;2023-03-03T08:25:25;3.20;99.90
21039;DHT22;10678;51.002;4.786;2023-03-03T08:27:50;3.20;99.90
21039;DHT22;10678;51.002;4.786;2023-03-03T08:30:16;3.20;99.90
21039;DHT22;10678;51.002;4.786;2023-03-03T08:32:42;3.30;99.90
21039;DHT22;10678;51.002;4.786;2023-03-03T08:35:08;3.40;99.90
21039;DHT22;10678;51.002;4.786;2023-03-03T08:37:33;3.40;99.90
21039;DHT22;10678;51.002;4.786;2023-03-03T08:39:59;3.60;99.90
21039;DHT22;10678;51.002;4.786;2023-03-03T08:42:25;3.70;99.90
21039;DHT22;10678;51.002;4.786;2023-03-03T08:44:50;3.70;99.90
21039;DHT22;10678;51.002;4.786;2023-03-03T08:47:16;3.70;99.90
21039;DHT22;10678;51.002;4.786;2023-03-03T08:49:41;3.90;99.90
21039;DHT22;10678;51.002;4.786;2023-03-03T08:52:07;3.90;99.90
21039;DHT22;10678;51.002;4.786;2023-03-03T08:54:32;4.00;99.90
21039;DHT22;10678;51.002;4.786;2023-03-03T08:56:58;4.10;99.90
21039;DHT22;10678;51.002;4.786;2023-03-03T08:59:23;3.90;99.90
21039;DHT22;10678;51.002;4.786;2023-03-03T09:01:49;3.70;99.90
21039;DHT22;10678;51.002;4.786;2023-03-03T09:04:14;3.70;99.90
21039;DHT22;10678;51.002;4.786;2023-03-03T09:06:40;3.80;99.90
21039;DHT22;10678;51.002;4.786;2023-03-03T09:09:06;3.90;99.90
21039;DHT22;10678;51.002;4.786;2023-03-03T09:11:32;4.10;99.90
21039;DHT22;10678;51.002;4.786;2023-03-03T09:14:14;4.00;99.90
21039;DHT22;10678;51.002;4.786;2023-03-03T09:16:52;4.00;99.90
21039;DHT22;10678;51.002;4.786;2023-03-03T09:19:30;4.10;99.90
21039;DHT22;10678;51.002;4.786;2023-03-03T09:22:02;4.10;99.90
21039;DHT22;10678;51.002;4.786;2023-03-03T09:24:36;4.20;99.90
21039;DHT22;10678;51.002;4.786;2023-03-03T09:27:01;4.40;99.90
21039;DHT22;10678;51.002;4.786;2023-03-03T09:29:29;4.50;99.90
21039;DHT22;10678;51.002;4.786;2023-03-03T09:31:57;4.50;99.90
21039;DHT22;10678;51.002;4.786;2023-03-03T09:36:57;4.70;99.90
21039;DHT22;10678;51.002;4.786;2023-03-03T09:39:26;4.80;99.90
21039;DHT22;10678;51.002;4.786;2023-03-03T10:03:36;5.40;99.90
21039;DHT22;10678;51.002;4.786;2023-03-03T10:06:42;5.20;99.90
21039;DHT22;10678;51.002;4.786;2023-03-03T10:09:42;5.40;99.90
21039;DHT22;10678;51.002;4.786;2023-03-03T10:22:55;5.90;99.90
21039;DHT22;10678;51.002;4.786;2023-03-03T10:25:41;5.90;99.90
21039;DHT22;10678;51.002;4.786;2023-03-03T10:36:24;5.50;99.90
21039;DHT22;10678;51.002;4.786;2023-03-03T10:44:37;5.70;99.90
21039;DHT22;10678;51.002;4.786;2023-03-03T10:49:56;6.30;99.90
21039;DHT22;10678;51.002;4.786;2023-03-03T10:52:43;6.50;99.90
21039;DHT22;10678;51.002;4.786;2023-03-03T11:03:51;6.80;99.90
21039;DHT22;10678;51.002;4.786;2023-03-03T11:06:25;6.80;99.90
21039;DHT22;10678;51.002;4.786;2023-03-03T11:09:18;7.00;99.90
21039;DHT22;10678;51.002;4.786;2023-03-03T11:14:32;7.00;99.90
21039;DHT22;10678;51.002;4.786;2023-03-03T11:28:56;7.50;99.90
21039;DHT22;10678;51.002;4.786;2023-03-03T11:31:47;7.80;99.90
21039;DHT22;10678;51.002;4.786;2023-03-03T11:34:49;9.00;99.90
21039;DHT22;10678;51.002;4.786;2023-03-03T11:37:23;11.10;99.90
21039;DHT22;10678;51.002;4.786;2023-03-03T11:39:53;12.20;99.90
21039;DHT22;10678;51.002;4.786;2023-03-03T11:42:31;12.50;99.90
21039;DHT22;10678;51.002;4.786;2023-03-03T11:45:30;12.20;99.90
21039;DHT22;10678;51.002;4.786;2023-03-03T11:56:18;11.70;99.90
21039;DHT22;10678;51.002;4.786;2023-03-03T11:59:13;12.30;99.90
21039;DHT22;10678;51.002;4.786;2023-03-03T12:07:44;16.60;99.90
21039;DHT22;10678;51.002;4.786;2023-03-03T12:13:02;14.20;99.90
21039;DHT22;10678;51.002;4.786;2023-03-03T12:15:37;13.10;99.90
21039;DHT22;10678;51.002;4.786;2023-03-03T12:21:23;12.10;99.90
21039;DHT22;10678;51.002;4.786;2023-03-03T12:32:22;13.00;99.90
21039;DHT22;10678;51.002;4.786;2023-03-03T12:35:15;12.60;99.90
21039;DHT22;10678;51.002;4.786;2023-03-03T12:37:52;12.00;99.90
21039;DHT22;10678;51.002;4.786;2023-03-03T12:40:23;11.80;99.90
21039;DHT22;10678;51.002;4.786;2023-03-03T12:43:15;11.70;99.90
21039;DHT22;10678;51.002;4.786;2023-03-03T12:48:41;11.40;99.90
21039;DHT22;10678;51.002;4.786;2023-03-03T12:51:44;10.60;99.90
21039;DHT22;10678;51.002;4.786;2023-03-03T12:56:52;10.50;99.90
21039;DHT22;10678;51.002;4.786;2023-03-03T13:07:42;20.10;92.20
21039;DHT22;10678;51.002;4.786;2023-03-03T13:10:41;20.60;84.10
21039;DHT22;10678;51.002;4.786;2023-03-03T13:16:12;21.40;77.80
21039;DHT22;10678;51.002;4.786;2023-03-03T13:18:46;22.50;73.50
21039;DHT22;10678;51.002;4.786;2023-03-03T13:22:05;22.00;70.50
21039;DHT22;10678;51.002;4.786;2023-03-03T13:24:50;20.50;74.20
21039;DHT22;10678;51.002;4.786;2023-03-03T13:27:20;17.90;81.30
21039;DHT22;10678;51.002;4.786;2023-03-03T13:30:02;16.00;90.10
21039;DHT22;10678;51.002;4.786;2023-03-03T13:33:29;14.70;93.60
21039;DHT22;10678;51.002;4.786;2023-03-03T13:35:58;13.70;96.20
21039;DHT22;10678;51.002;4.786;2023-03-03T13:38:36;12.80;99.70
21039;DHT22;10678;51.002;4.786;2023-03-03T13:49:45;10.40;99.90
21039;DHT22;10678;51.002;4.786;2023-03-03T13:52:20;10.00;99.90
21039;DHT22;10678;51.002;4.786;2023-03-03T14:05:45;8.70;99.90
21039;DHT22;10678;51.002;4.786;2023-03-03T14:08:45;8.70;99.90
21039;DHT22;10678;51.002;4.786;2023-03-03T14:16:49;8.40;99.90
21039;DHT22;10678;51.002;4.786;2023-03-03T14:25:14;8.60;99.90
21039;DHT22;10678;51.002;4.786;2023-03-03T14:35:40;8.70;99.90
21039;DHT22;10678;51.002;4.786;2023-03-03T14:38:21;8.70;99.90
21039;DHT22;10678;51.002;4.786;2023-03-03T14:40:48;8.50;99.90
21039;DHT22;10678;51.002;4.786;2023-03-03T14:43:26;8.70;99.90
21039;DHT22;10678;51.002;4.786;2023-03-03T14:49:04;9.00;99.90
21039;DHT22;10678;51.002;4.786;2023-03-03T14:51:41;9.00;99.90
21039;DHT22;10678;51.002;4.786;2023-03-03T14:54:23;8.90;99.90
21039;DHT22;10678;51.002;4.786;2023-03-03T14:59:38;8.80;99.90
21039;DHT22;10678;51.002;4.786;2023-03-03T15:04:44;8.60;99.90
21039;DHT22;10678;51.002;4.786;2023-03-03T15:09:51;8.40;99.90
21039;DHT22;10678;51.002;4.786;2023-03-03T15:12:25;8.50;99.90
21039;DHT22;10678;51.002;4.786;2023-03-03T15:18:08;8.70;99.90
21039;DHT22;10678;51.002;4.786;2023-03-03T15:20:46;8.50;99.90
21039;DHT22;10678;51.002;4.786;2023-03-03T15:23:32;8.40;99.90
21039;DHT22;10678;51.002;4.786;2023-03-03T15:29:12;8.30;99.90
21039;DHT22;10678;51.002;4.786;2023-03-03T15:34:40;8.40;99.90
21039;DHT22;10678;51.002;4.786;2023-03-03T15:40:35;8.50;99.90
21039;DHT22;10678;51.002;4.786;2023-03-03T15:51:23;8.40;99.90
21039;DHT22;10678;51.002;4.786;2023-03-03T15:54:06;8.30;99.90
21039;DHT22;10678;51.002;4.786;2023-03-03T16:02:18;8.30;99.90
21039;DHT22;10678;51.002;4.786;2023-03-03T16:05:14;8.20;99.90
21039;DHT22;10678;51.002;4.786;2023-03-03T16:08:18;8.20;99.90
21039;DHT22;10678;51.002;4.786;2023-03-03T16:16:57;8.00;99.90
21039;DHT22;10678;51.002;4.786;2023-03-03T16:19:37;8.10;99.90
21039;DHT22;10678;51.002;4.786;2023-03-03T16:22:11;8.20;99.90
21039;DHT22;10678;51.002;4.786;2023-03-03T16:30:51;8.20;99.90
21039;DHT22;10678;51.002;4.786;2023-03-03T16:33:26;8.10;99.90
21039;DHT22;10678;51.002;4.786;2023-03-03T16:36:03;8.00;99.90
21039;DHT22;10678;51.002;4.786;2023-03-03T16:46:42;7.50;99.90
21039;DHT22;10678;51.002;4.786;2023-03-03T16:49:26;7.40;99.90
21039;DHT22;10678;51.002;4.786;2023-03-03T16:52:07;7.40;99.90
21039;DHT22;10678;51.002;4.786;2023-03-03T16:54:49;7.40;99.90
21039;DHT22;10678;51.002;4.786;2023-03-03T16:59:54;7.40;99.90
21039;DHT22;10678;51.002;4.786;2023-03-03T17:18:03;7.50;99.90
21039;DHT22;10678;51.002;4.786;2023-03-03T17:20:59;7.40;99.90
21039;DHT22;10678;51.002;4.786;2023-03-03T17:36:31;7.40;99.90
21039;DHT22;10678;51.002;4.786;2023-03-03T17:39:15;7.40;99.90
21039;DHT22;10678;51.002;4.786;2023-03-03T17:44:33;7.30;99.90
21039;DHT22;10678;51.002;4.786;2023-03-03T17:47:05;7.30;99.90
21039;DHT22;10678;51.002;4.786;2023-03-03T17:50:01;7.20;99.90
21039;DHT22;10678;51.002;4.786;2023-03-03T17:52:52;7.20;99.90
21039;DHT22;10678;51.002;4.786;2023-03-03T17:58:42;7.20;99.90
21039;DHT22;10678;51.002;4.786;2023-03-03T18:04:35;7.20;99.90
21039;DHT22;10678;51.002;4.786;2023-03-03T18:07:23;7.10;99.90
21039;DHT22;10678;51.002;4.786;2023-03-03T18:15:34;7.00;99.90
21039;DHT22;10678;51.002;4.786;2023-03-03T18:18:39;7.00;99.90
21039;DHT22;10678;51.002;4.786;2023-03-03T18:21:14;7.00;99.90
21039;DHT22;10678;51.002;4.786;2023-03-03T18:23:42;7.00;99.90
21039;DHT22;10678;51.002;4.786;2023-03-03T18:26:28;6.90;99.90
21039;DHT22;10678;51.002;4.786;2023-03-03T18:29:08;6.80;99.90
21039;DHT22;10678;51.002;4.786;2023-03-03T18:34:36;6.90;99.90
21039;DHT22;10678;51.002;4.786;2023-03-03T18:44:55;6.90;99.90
21039;DHT22;10678;51.002;4.786;2023-03-03T19:03:34;6.90;99.90
21039;DHT22;10678;51.002;4.786;2023-03-03T19:06:01;6.90;99.90
21039;DHT22;10678;51.002;4.786;2023-03-03T19:08:52;6.90;99.90
21039;DHT22;10678;51.002;4.786;2023-03-03T19:11:38;6.90;99.90
21039;DHT22;10678;51.002;4.786;2023-03-03T19:16:51;7.00;99.90
21039;DHT22;10678;51.002;4.786;2023-03-03T19:22:21;7.00;99.90
21039;DHT22;10678;51.002;4.786;2023-03-03T19:27:40;6.90;99.90
21039;DHT22;10678;51.002;4.786;2023-03-03T19:35:41;6.90;99.90
21039;DHT22;10678;51.002;4.786;2023-03-03T19:39:01;6.90;99.90
21039;DHT22;10678;51.002;4.786;2023-03-03T19:41:20;6.80;99.90
21039;DHT22;10678;51.002;4.786;2023-03-03T19:46:46;6.80;99.90
21039;DHT22;10678;51.002;4.786;2023-03-03T19:52:42;6.80;99.90
21039;DHT22;10678;51.002;4.786;2023-03-03T19:58:01;6.80;99.90
21039;DHT22;10678;51.002;4.786;2023-03-03T20:17:38;6.70;99.90
21039;DHT22;10678;51.002;4.786;2023-03-03T20:30:58;7.00;99.90
21039;DHT22;10678;51.002;4.786;2023-03-03T20:39:27;7.20;99.90
21039;DHT22;10678;51.002;4.786;2023-03-03T20:49:52;7.10;99.90
21039;DHT22;10678;51.002;4.786;2023-03-03T20:52:25;7.30;99.90
21039;DHT22;10678;51.002;4.786;2023-03-03T20:58:01;7.30;99.90
21039;DHT22;10678;51.002;4.786;2023-03-03T21:00:39;7.30;99.90
21039;DHT22;10678;51.002;4.786;2023-03-03T21:05:55;7.10;99.90
21039;DHT22;10678;51.002;4.786;2023-03-03T21:11:03;7.30;99.90
21039;DHT22;10678;51.002;4.786;2023-03-03T21:13:43;7.20;99.90
21039;DHT22;10678;51.002;4.786;2023-03-03T21:16:28;7.20;99.90
21039;DHT22;10678;51.002;4.786;2023-03-03T21:19:44;7.20;99.90
21039;DHT22;10678;51.002;4.786;2023-03-03T21:21:51;7.10;99.90
21039;DHT22;10678;51.002;4.786;2023-03-03T21:24:17;7.10;99.90
21039;DHT22;10678;51.002;4.786;2023-03-03T21:26:57;7.00;99.90
21039;DHT22;10678;51.002;4.786;2023-03-03T21:29:27;7.00;99.90
21039;DHT22;10678;51.002;4.786;2023-03-03T21:34:31;7.10;99.90
21039;DHT22;10678;51.002;4.786;2023-03-03T21:36:59;7.20;99.90
21039;DHT22;10678;51.002;4.786;2023-03-03T21:39:31;7.20;99.90
21039;DHT22;10678;51.002;4.786;2023-03-03T21:42:05;7.30;99.90
21039;DHT22;10678;51.002;4.786;2023-03-03T21:44:42;7.30;99.90
21039;DHT22;10678;51.002;4.786;2023-03-03T21:47:11;7.30;99.90
21039;DHT22;10678;51.002;4.786;2023-03-03T21:49:48;7.20;99.90
21039;DHT22;10678;51.002;4.786;2023-03-03T21:52:16;7.30;99.90
21039;DHT22;10678;51.002;4.786;2023-03-03T21:54:44;7.30;99.90
21039;DHT22;10678;51.002;4.786;2023-03-03T21:57:10;7.20;99.90
21039;DHT22;10678;51.002;4.786;2023-03-03T21:59:35;7.30;99.90
21039;DHT22;10678;51.002;4.786;2023-03-03T22:02:01;7.30;99.90
21039;DHT22;10678;51.002;4.786;2023-03-03T22:04:27;7.30;99.90
21039;DHT22;10678;51.002;4.786;2023-03-03T22:06:53;7.40;99.90
21039;DHT22;10678;51.002;4.786;2023-03-03T22:09:19;7.30;99.90
21039;DHT22;10678;51.002;4.786;2023-03-03T22:11:44;7.30;99.90
21039;DHT22;10678;51.002;4.786;2023-03-03T22:14:10;7.20;99.90
21039;DHT22;10678;51.002;4.786;2023-03-03T22:16:36;7.20;99.90
21039;DHT22;10678;51.002;4.786;2023-03-03T22:19:02;7.30;99.90
21039;DHT22;10678;51.002;4.786;2023-03-03T22:21:28;7.30;99.90
21039;DHT22;10678;51.002;4.786;2023-03-03T22:23:54;7.30;99.90
21039;DHT22;10678;51.002;4.786;2023-03-03T22:26:19;7.30;99.90
21039;DHT22;10678;51.002;4.786;2023-03-03T22:28:47;7.30;99.90
21039;DHT22;10678;51.002;4.786;2023-03-03T22:31:13;7.30;99.90
21039;DHT22;10678;51.002;4.786;2023-03-03T22:33:39;7.40;99.90
21039;DHT22;10678;51.002;4.786;2023-03-03T22:36:05;7.30;99.90
21039;DHT22;10678;51.002;4.786;2023-03-03T22:38:31;7.30;99.90
21039;DHT22;10678;51.002;4.786;2023-03-03T22:40:56;7.30;99.90
21039;DHT22;10678;51.002;4.786;2023-03-03T22:43:22;7.30;99.90
21039;DHT22;10678;51.002;4.786;2023-03-03T22:45:50;7.30;99.90